Time;durP1;ratioP1;P1;durP2;ratioP2;P2;SDS_P1;SDS_P2;PMS_P1;PMS_P2;Temp;Humidity;BMP_temperature;BMP_pressure;BME280_temperature;BME280_humidity;BME280_pressure;Samples;Min_cycle;Max_cycle;Signal;HPM_P1;HPM_P2
2020/12/28 00:00:30;;;;;;;9.10;4.40;;;4.30;99.90;;;;;;5011954;28;20161;-59
2020/12/28 00:02:56;;;;;;;13.02;5.18;;;4.30;99.90;;;;;;5011408;28;20104;-59
2020/12/28 00:05:23;;;;;;;12.32;5.43;;;4.30;99.90;;;;;;4662405;28;10000395;-54
2020/12/28 00:07:49;;;;;;;11.07;4.68;;;4.30;99.90;;;;;;5007999;28;20036;-57
2020/12/28 00:10:44;;;;;;;9.55;4.55;;;4.30;99.90;;;;;;5007712;28;20497;-58
2020/12/28 00:13:28;;;;;;;11.23;4.80;;;4.30;99.90;;;;;;5001029;28;20792;-55
2020/12/28 00:15:53;;;;;;;11.40;5.20;;;4.20;99.90;;;;;;5007355;28;20026;-58
2020/12/28 00:18:19;;;;;;;11.23;5.20;;;4.20;99.90;;;;;;5007302;28;20039;-56
2020/12/28 00:20:45;;;;;;;10.55;5.03;;;4.20;99.90;;;;;;4991323;28;20038;-57
2020/12/28 00:23:10;;;;;;;11.55;5.30;;;4.20;99.90;;;;;;5008987;28;20044;-52
2020/12/28 00:25:36;;;;;;;13.05;5.78;;;4.20;99.90;;;;;;5007811;28;20030;-56
2020/12/28 00:28:02;;;;;;;12.82;5.63;;;4.20;99.90;;;;;;5008017;28;20630;-56
2020/12/28 00:30:27;;;;;;;12.13;5.70;;;4.20;99.90;;;;;;5007295;28;20036;-52
2020/12/28 00:32:53;;;;;;;12.02;6.20;;;4.10;99.90;;;;;;5008976;28;20026;-55
2020/12/28 00:35:37;;;;;;;12.65;6.60;;;4.20;99.90;;;;;;5010036;28;20037;-57
2020/12/28 00:38:02;;;;;;;13.65;7.30;;;4.20;99.90;;;;;;5015991;28;20494;-56
2020/12/28 00:40:29;;;;;;;13.63;7.57;;;4.20;99.90;;;;;;5016640;28;20032;-55
2020/12/28 00:42:55;;;;;;;11.77;6.55;;;4.20;99.90;;;;;;5019266;28;20025;-58
2020/12/28 00:45:20;;;;;;;13.10;6.53;;;4.20;99.90;;;;;;5016839;28;20604;-57
2020/12/28 00:47:46;;;;;;;12.43;6.75;;;4.20;99.90;;;;;;5017724;28;20048;-57
2020/12/28 00:50:12;;;;;;;12.32;6.47;;;4.20;99.90;;;;;;5016438;28;20417;-54
2020/12/28 00:52:37;;;;;;;11.85;6.50;;;4.10;99.90;;;;;;5018743;28;20546;-55
2020/12/28 00:55:03;;;;;;;12.00;6.57;;;4.10;99.90;;;;;;5013013;28;20068;-58
2020/12/28 00:57:29;;;;;;;11.38;6.13;;;4.10;99.90;;;;;;5028637;28;20059;-54
2020/12/28 00:59:56;;;;;;;12.38;6.40;;;4.00;99.90;;;;;;5027710;28;20379;-57
2020/12/28 01:02:21;;;;;;;12.40;6.80;;;4.00;99.90;;;;;;5022462;28;20036;-58
2020/12/28 01:04:47;;;;;;;12.88;7.03;;;4.00;99.90;;;;;;5016806;28;20029;-55
2020/12/28 01:07:15;;;;;;;13.45;6.90;;;4.00;99.90;;;;;;5015967;28;20046;-55
2020/12/28 01:09:41;;;;;;;13.43;7.15;;;4.00;99.90;;;;;;5027001;28;20045;-55
2020/12/28 01:12:07;;;;;;;12.90;7.07;;;4.10;99.90;;;;;;5027625;28;20563;-57
2020/12/28 01:14:33;;;;;;;13.05;6.95;;;4.00;99.90;;;;;;5011270;28;20034;-59
2020/12/28 01:16:59;;;;;;;13.13;7.10;;;4.10;99.90;;;;;;5007637;28;20026;-58
2020/12/28 01:19:24;;;;;;;12.55;6.78;;;4.10;99.90;;;;;;5010027;28;20018;-59
2020/12/28 01:21:51;;;;;;;13.45;7.10;;;4.00;99.90;;;;;;5012379;28;20049;-57
2020/12/28 01:24:17;;;;;;;13.35;7.05;;;4.00;99.90;;;;;;5010786;28;20033;-56
2020/12/28 01:26:45;;;;;;;13.75;7.55;;;4.10;99.90;;;;;;5011019;28;20033;-52
2020/12/28 01:29:11;;;;;;;14.07;7.25;;;4.10;99.90;;;;;;5011230;28;20105;-57
2020/12/28 01:31:36;;;;;;;12.93;6.95;;;4.10;99.90;;;;;;5011943;28;20061;-55
2020/12/28 01:34:02;;;;;;;13.23;7.15;;;4.10;99.90;;;;;;5010170;28;20044;-60
2020/12/28 01:39:50;;;;;;;13.75;7.13;;;4.10;99.90;;;;;;5011573;28;20030;-59
2020/12/28 01:42:16;;;;;;;13.70;7.35;;;4.10;99.90;;;;;;5011923;28;20033;-58
2020/12/28 01:44:42;;;;;;;13.63;7.50;;;4.10;99.90;;;;;;5010422;28;20030;-55
2020/12/28 01:47:07;;;;;;;15.38;7.97;;;4.10;99.90;;;;;;5008597;28;20038;-52
2020/12/28 01:49:34;;;;;;;14.75;7.40;;;4.20;99.90;;;;;;5010771;28;20026;-57
2020/12/28 01:52:02;;;;;;;13.93;7.15;;;4.20;99.90;;;;;;5010819;28;20069;-57
2020/12/28 01:54:29;;;;;;;13.15;6.97;;;4.10;99.90;;;;;;5012295;28;20033;-59
2020/12/28 01:56:58;;;;;;;13.40;6.90;;;4.10;99.90;;;;;;5012336;28;20072;-58
2020/12/28 01:59:24;;;;;;;;;;;4.20;99.90;;;;;;5010424;28;20124;-59
2020/12/28 02:01:51;;;;;;;14.23;6.88;;;4.10;99.90;;;;;;5011933;28;20425;-58
2020/12/28 02:04:18;;;;;;;12.95;6.57;;;4.20;99.90;;;;;;5011951;28;20026;-58
2020/12/28 02:06:44;;;;;;;12.75;6.38;;;4.10;99.90;;;;;;5011849;28;20061;-58
2020/12/28 02:09:10;;;;;;;12.57;6.43;;;4.20;99.90;;;;;;5009785;28;20029;-57
2020/12/28 02:11:35;;;;;;;14.70;6.50;;;4.20;99.90;;;;;;5011491;28;20032;-57
2020/12/28 02:14:02;;;;;;;13.20;6.63;;;4.20;99.90;;;;;;5011285;28;20056;-57
2020/12/28 02:16:27;;;;;;;13.02;6.43;;;4.20;99.90;;;;;;5011605;28;20030;-59
2020/12/28 02:18:53;;;;;;;12.55;6.32;;;4.20;99.90;;;;;;5011154;28;20091;-57
2020/12/28 02:21:19;;;;;;;12.48;6.15;;;4.20;99.90;;;;;;5010382;28;20026;-55
2020/12/28 02:23:45;;;;;;;12.23;6.00;;;4.20;99.90;;;;;;5012731;28;20030;-58
2020/12/28 02:26:11;;;;;;;12.48;6.18;;;4.20;99.90;;;;;;5015219;28;20072;-59
2020/12/28 02:28:37;;;;;;;12.18;5.80;;;4.20;99.90;;;;;;5013463;28;20038;-56
2020/12/28 02:31:03;;;;;;;11.75;5.68;;;4.20;99.90;;;;;;5015079;28;20026;-58
2020/12/28 02:33:28;;;;;;;13.05;6.10;;;4.20;99.90;;;;;;5015037;28;20383;-57
2020/12/28 02:35:54;;;;;;;11.85;5.38;;;4.20;99.90;;;;;;5013992;28;20050;-58
2020/12/28 02:38:20;;;;;;;12.02;5.35;;;4.20;99.90;;;;;;5013325;28;20041;-59
2020/12/28 02:40:46;;;;;;;12.40;5.63;;;4.20;99.90;;;;;;5014762;28;20033;-58
2020/12/28 02:43:12;;;;;;;13.38;5.45;;;4.20;99.90;;;;;;5014772;28;20494;-58
2020/12/28 02:45:37;;;;;;;13.10;6.32;;;4.20;99.90;;;;;;5013602;28;20057;-54
2020/12/28 02:48:03;;;;;;;13.00;5.93;;;4.10;99.90;;;;;;5014566;28;20076;-57
2020/12/28 02:50:29;;;;;;;12.65;5.57;;;4.20;99.90;;;;;;5012941;28;20022;-59
2020/12/28 02:52:55;;;;;;;10.98;5.57;;;4.10;99.90;;;;;;5013260;28;20018;-55
2020/12/28 02:55:21;;;;;;;13.32;6.03;;;4.10;99.90;;;;;;5014489;28;20477;-57
2020/12/28 02:57:47;;;;;;;13.35;6.20;;;4.10;99.90;;;;;;5013037;28;20029;-54
2020/12/28 03:00:12;;;;;;;13.38;6.05;;;4.10;99.90;;;;;;5012634;28;20389;-57
2020/12/28 03:02:38;;;;;;;12.57;5.82;;;4.10;99.90;;;;;;5013047;28;20036;-56
2020/12/28 03:05:04;;;;;;;12.88;6.55;;;4.10;99.90;;;;;;5013106;28;20026;-55
2020/12/28 03:07:30;;;;;;;12.68;5.80;;;4.20;99.90;;;;;;5014443;28;20076;-55
2020/12/28 03:09:59;;;;;;;12.23;6.00;;;4.10;99.90;;;;;;5013648;28;20037;-55
2020/12/28 03:12:24;;;;;;;12.68;5.93;;;4.10;99.90;;;;;;5012935;28;20088;-59
2020/12/28 03:14:50;;;;;;;13.20;6.30;;;4.10;99.90;;;;;;5012771;28;20066;-56
2020/12/28 03:17:16;;;;;;;12.80;6.40;;;4.10;99.90;;;;;;5013797;28;20029;-55
2020/12/28 03:19:42;;;;;;;12.38;6.15;;;4.10;99.90;;;;;;5013331;28;20025;-55
2020/12/28 03:22:08;;;;;;;13.18;6.32;;;4.10;99.90;;;;;;5014237;28;20034;-58
2020/12/28 03:24:33;;;;;;;12.70;5.93;;;4.10;99.90;;;;;;5012705;28;20030;-54
2020/12/28 03:27:03;;;;;;;14.27;6.50;;;4.00;99.90;;;;;;5013926;28;20030;-57
2020/12/28 03:29:30;;;;;;;14.68;6.60;;;4.10;99.90;;;;;;5013366;28;20032;-58
2020/12/28 03:31:56;;;;;;;13.98;6.30;;;4.10;99.90;;;;;;5012621;28;20034;-52
2020/12/28 03:34:22;;;;;;;14.77;7.10;;;4.00;99.90;;;;;;5013592;28;20049;-57
2020/12/28 03:36:48;;;;;;;14.23;6.78;;;4.00;99.90;;;;;;5011983;28;20028;-54
2020/12/28 03:39:14;;;;;;;14.15;7.30;;;4.10;99.90;;;;;;5012530;28;20026;-54
2020/12/28 03:41:40;;;;;;;14.15;7.05;;;4.00;99.90;;;;;;5013582;28;20029;-59
2020/12/28 03:44:06;;;;;;;14.40;7.45;;;4.00;99.90;;;;;;5013682;28;20025;-53
2020/12/28 03:46:31;;;;;;;16.35;7.45;;;4.00;99.90;;;;;;5012853;28;20026;-55
2020/12/28 03:48:57;;;;;;;15.90;8.38;;;3.90;99.90;;;;;;5012996;28;20097;-57
2020/12/28 03:51:24;;;;;;;14.20;7.80;;;4.00;99.90;;;;;;5013481;28;20034;-59
2020/12/28 03:54:08;;;;;;;;;;;;;;;;;;;;;
2020/12/28 03:56:34;;;;;;;13.88;7.13;;;4.00;99.90;;;;;;5013998;28;20026;-56
2020/12/28 03:59:14;;;;;;;14.90;7.40;;;4.00;99.90;;;;;;5013304;28;20029;-56
2020/12/28 04:01:57;;;;;;;14.30;7.57;;;4.00;99.90;;;;;;5013143;28;20018;-57
2020/12/28 04:04:23;;;;;;;14.13;7.28;;;4.00;99.90;;;;;;5013264;28;20045;-55
2020/12/28 04:06:49;;;;;;;15.77;7.35;;;4.00;99.90;;;;;;5012134;28;20026;-55
2020/12/28 04:09:15;;;;;;;15.27;7.68;;;4.00;99.90;;;;;;5012723;28;20148;-54
2020/12/28 04:11:41;;;;;;;14.85;7.65;;;4.00;99.90;;;;;;5013094;28;20026;-54
2020/12/28 04:14:07;;;;;;;16.00;7.80;;;4.00;99.90;;;;;;5011608;28;20076;-57
2020/12/28 04:16:32;;;;;;;13.85;7.47;;;4.00;99.90;;;;;;5013206;28;20034;-57
2020/12/28 04:18:58;;;;;;;14.85;7.75;;;4.00;99.90;;;;;;5011123;28;20025;-58
2020/12/28 04:21:37;;;;;;;14.68;7.60;;;4.10;99.90;;;;;;5013236;28;20018;-59
2020/12/28 04:24:03;;;;;;;14.38;7.63;;;4.10;99.90;;;;;;5013090;28;20033;-54
2020/12/28 04:30:13;;;;;;;14.57;7.25;;;4.10;99.90;;;;;;4875790;29;20061;-59
2020/12/28 04:32:38;;;;;;;13.45;6.85;;;4.10;99.90;;;;;;4897558;29;20080;-56
2020/12/28 04:35:05;;;;;;;15.27;7.38;;;4.10;99.90;;;;;;4991005;28;20037;-56
2020/12/28 04:37:31;;;;;;;13.50;6.70;;;4.10;99.90;;;;;;5012604;28;20112;-58
2020/12/28 04:39:57;;;;;;;14.32;7.05;;;4.10;99.90;;;;;;5011992;28;20084;-57
2020/12/28 04:42:25;;;;;;;13.95;6.95;;;4.10;99.90;;;;;;5012767;28;20038;-53
2020/12/28 04:44:50;;;;;;;13.82;6.80;;;4.10;99.90;;;;;;5012420;28;20022;-57
2020/12/28 04:47:16;;;;;;;15.70;6.90;;;4.10;99.90;;;;;;5011464;28;20045;-57
2020/12/28 04:49:45;;;;;;;15.70;6.93;;;4.10;99.90;;;;;;5011834;28;20058;-57
2020/12/28 04:52:15;;;;;;;15.93;7.47;;;4.20;99.90;;;;;;5012575;28;20490;-56
2020/12/28 04:54:42;;;;;;;14.38;6.60;;;4.10;99.90;;;;;;5012066;28;20045;-56
2020/12/28 04:57:09;;;;;;;15.85;7.72;;;4.10;99.90;;;;;;5010912;28;20071;-55
2020/12/28 04:59:35;;;;;;;15.38;7.45;;;4.10;99.90;;;;;;5011810;28;20101;-54
2020/12/28 05:02:01;;;;;;;14.02;7.72;;;4.00;99.90;;;;;;5010591;28;20505;-56
2020/12/28 05:04:26;;;;;;;14.32;8.45;;;3.90;99.90;;;;;;5010912;28;20655;-56
2020/12/28 05:07:04;;;;;;;15.10;9.25;;;3.70;99.90;;;;;;5011085;28;20076;-53
2020/12/28 05:09:31;;;;;;;15.10;9.10;;;3.70;99.90;;;;;;5011598;28;20382;-53
2020/12/28 05:12:01;;;;;;;14.77;8.27;;;3.60;99.90;;;;;;5012124;28;20022;-53
2020/12/28 05:14:36;;;;;;;16.15;9.13;;;3.60;99.90;;;;;;5045663;23;20041;-67
2020/12/28 05:17:04;;;;;;;15.77;8.90;;;3.60;99.90;;;;;;5030430;28;20116;-65
2020/12/28 05:19:32;;;;;;;;;;;3.70;99.90;;;;;;5030196;28;20029;-66
2020/12/28 05:21:59;;;;;;;17.33;9.93;;;3.70;99.90;;;;;;5030423;28;19905;-66
2020/12/28 05:24:25;;;;;;;18.40;11.02;;;3.70;99.90;;;;;;5030637;28;20033;-66
2020/12/28 05:26:51;;;;;;;19.40;11.15;;;3.80;99.90;;;;;;5030884;28;20432;-65
2020/12/28 05:29:21;;;;;;;19.85;9.80;;;3.80;99.90;;;;;;5030196;28;20025;-66
2020/12/28 05:31:49;;;;;;;20.42;10.77;;;3.80;99.90;;;;;;5030810;28;20036;-65
2020/12/28 05:34:23;;;;;;;18.27;10.25;;;3.80;99.90;;;;;;5013053;28;20033;-66
2020/12/28 05:36:54;;;;;;;21.33;11.23;;;3.80;99.90;;;;;;5013413;28;20029;-66
2020/12/28 05:39:23;;;;;;;19.63;11.00;;;3.80;99.90;;;;;;5011560;28;20029;-66
2020/12/28 05:42:08;;;;;;;20.98;12.57;;;3.80;99.90;;;;;;5030209;28;20033;-66
2020/12/28 05:44:35;;;;;;;20.63;12.02;;;3.80;99.90;;;;;;5030036;28;20022;-65
2020/12/28 05:47:14;;;;;;;19.67;12.13;;;3.80;99.90;;;;;;5030156;28;20033;-67
2020/12/28 05:49:41;;;;;;;20.33;12.02;;;3.80;99.90;;;;;;5029502;28;20497;-65
2020/12/28 05:52:09;;;;;;;20.05;12.23;;;3.90;99.90;;;;;;5030195;28;20040;-66
2020/12/28 05:54:36;;;;;;;20.53;12.23;;;3.90;99.90;;;;;;5012255;28;20026;-67
2020/12/28 05:57:03;;;;;;;19.17;10.93;;;3.90;99.90;;;;;;5012471;28;20527;-66
2020/12/28 05:59:30;;;;;;;21.08;11.63;;;3.90;99.90;;;;;;5031833;28;20021;-66
2020/12/28 06:01:58;;;;;;;20.93;12.07;;;3.90;99.90;;;;;;5034324;28;20453;-66
2020/12/28 06:04:24;;;;;;;22.13;13.02;;;3.90;99.90;;;;;;5034332;28;20675;-67
2020/12/28 06:06:57;;;;;;;21.70;12.77;;;4.00;99.90;;;;;;4999746;28;20068;-67
2020/12/28 06:09:23;;;;;;;22.00;12.68;;;4.00;99.90;;;;;;5015252;28;20540;-66
2020/12/28 06:11:49;;;;;;;20.88;12.77;;;3.90;99.90;;;;;;5034042;28;20029;-66
2020/12/28 06:14:20;;;;;;;19.85;12.15;;;3.90;99.90;;;;;;5033668;28;20082;-66
2020/12/28 06:16:47;;;;;;;21.55;13.57;;;3.90;99.90;;;;;;5033637;28;20555;-66
2020/12/28 06:19:24;;;;;;;22.58;13.68;;;3.90;99.90;;;;;;5014895;28;20080;-66
2020/12/28 06:21:53;;;;;;;21.92;13.00;;;3.90;99.90;;;;;;5033497;28;20064;-66
2020/12/28 06:24:30;;;;;;;22.80;13.77;;;3.90;99.90;;;;;;5033325;28;20028;-66
2020/12/28 06:27:07;;;;;;;21.25;12.57;;;3.90;99.90;;;;;;5015802;28;20453;-67
2020/12/28 06:29:34;;;;;;;22.02;13.25;;;3.90;99.90;;;;;;5032771;28;20036;-66
2020/12/28 06:32:19;;;;;;;22.02;13.68;;;3.90;99.90;;;;;;5015614;28;20188;-66
2020/12/28 06:34:45;;;;;;;20.98;12.30;;;3.90;99.90;;;;;;5015408;28;20029;-67
2020/12/28 06:37:13;;;;;;;20.95;12.82;;;3.90;99.90;;;;;;5015253;28;20465;-66
2020/12/28 06:39:39;;;;;;;22.60;13.70;;;3.80;99.90;;;;;;5032552;28;20460;-67
2020/12/28 06:42:13;;;;;;;21.25;12.23;;;3.80;99.90;;;;;;5033039;28;20354;-66
2020/12/28 06:44:39;;;;;;;24.25;13.07;;;3.80;99.90;;;;;;5033335;28;20040;-66
2020/12/28 06:47:20;;;;;;;22.95;12.93;;;3.80;99.90;;;;;;5015537;28;20330;-67
2020/12/28 06:49:47;;;;;;;22.15;13.05;;;3.70;99.90;;;;;;5032692;28;20026;-67
2020/12/28 06:52:14;;;;;;;22.52;13.55;;;3.70;99.90;;;;;;5033242;28;20032;-66
2020/12/28 06:54:40;;;;;;;22.25;12.90;;;3.80;99.90;;;;;;5033086;28;20124;-67
2020/12/28 06:57:07;;;;;;;22.30;13.20;;;3.80;99.90;;;;;;5032987;28;20516;-67
2020/12/28 06:59:34;;;;;;;23.15;13.95;;;3.80;99.90;;;;;;5032124;28;20079;-67
2020/12/28 07:02:01;;;;;;;23.45;14.15;;;3.80;99.90;;;;;;5014980;28;20455;-66
2020/12/28 07:04:31;;;;;;;23.58;14.10;;;3.90;99.90;;;;;;5032918;28;20060;-66
2020/12/28 07:07:02;;;;;;;22.92;13.45;;;3.90;99.90;;;;;;5014743;28;20079;-66
2020/12/28 07:09:28;;;;;;;22.50;13.32;;;3.90;99.90;;;;;;5031642;28;20026;-66
2020/12/28 07:11:54;;;;;;;22.67;13.73;;;4.00;99.90;;;;;;5031403;28;20032;-66
2020/12/28 07:14:20;;;;;;;23.90;14.05;;;4.00;99.90;;;;;;5032179;28;20074;-67
2020/12/28 07:16:53;;;;;;;20.58;12.70;;;4.00;99.90;;;;;;5032417;28;20506;-67
2020/12/28 07:19:25;;;;;;;20.08;12.07;;;4.00;99.90;;;;;;5031867;28;20049;-66
2020/12/28 07:21:51;;;;;;;22.15;13.85;;;4.00;99.90;;;;;;5014585;28;20562;-66
2020/12/28 07:24:18;;;;;;;21.65;13.13;;;4.00;99.90;;;;;;5032211;28;20499;-67
2020/12/28 07:26:44;;;;;;;20.75;12.70;;;4.00;99.90;;;;;;5032333;28;20021;-66
2020/12/28 07:29:12;;;;;;;23.45;13.90;;;4.00;99.90;;;;;;5013925;28;20037;-66
2020/12/28 07:31:39;;;;;;;21.65;13.15;;;4.00;99.90;;;;;;5014551;28;20026;-67
2020/12/28 07:34:05;;;;;;;21.52;12.30;;;4.00;99.90;;;;;;5014314;28;20036;-66
2020/12/28 07:36:33;;;;;;;21.70;13.07;;;4.00;99.90;;;;;;5032049;28;20102;-66
2020/12/28 07:39:00;;;;;;;22.35;13.15;;;4.00;99.90;;;;;;5031384;28;20021;-67
2020/12/28 07:41:26;;;;;;;21.35;13.32;;;4.00;99.90;;;;;;5032389;28;20021;-66
2020/12/28 07:43:59;;;;;;;21.13;11.95;;;4.00;99.90;;;;;;5032088;28;20036;-68
2020/12/28 07:46:31;;;;;;;23.15;13.27;;;4.00;99.90;;;;;;5032201;28;20045;-69
2020/12/28 07:49:01;;;;;;;19.33;11.38;;;4.00;99.90;;;;;;5030394;28;20029;-68
2020/12/28 07:51:27;;;;;;;23.77;12.90;;;4.10;99.90;;;;;;5028898;28;20033;-67
2020/12/28 07:54:12;;;;;;;21.10;13.00;;;4.00;99.90;;;;;;5022671;28;20029;-67
2020/12/28 07:56:47;;;;;;;21.20;13.00;;;4.10;99.90;;;;;;5004201;28;20087;-67
2020/12/28 07:59:34;;;;;;;21.73;13.02;;;4.10;99.90;;;;;;5013265;28;20025;-67
2020/12/28 08:02:18;;;;;;;25.23;13.75;;;4.10;99.90;;;;;;5012599;28;20355;-66
2020/12/28 08:04:44;;;;;;;22.52;13.02;;;4.10;99.90;;;;;;5011848;28;20137;-66
2020/12/28 08:07:10;;;;;;;21.17;11.98;;;4.10;99.90;;;;;;5011875;28;20034;-67
2020/12/28 08:09:36;;;;;;;23.85;13.20;;;4.10;99.90;;;;;;5004527;28;20025;-67
2020/12/28 08:12:02;;;;;;;20.95;11.60;;;4.10;99.90;;;;;;5031541;28;20053;-67
2020/12/28 08:14:28;;;;;;;19.98;11.30;;;4.10;99.90;;;;;;5013430;28;20057;-67
2020/12/28 08:16:54;;;;;;;22.95;13.05;;;4.00;99.90;;;;;;5031626;28;20097;-67
2020/12/28 08:19:29;;;;;;;19.15;10.50;;;3.90;99.90;;;;;;5030534;28;20159;-67
2020/12/28 08:21:55;;;;;;;20.88;11.85;;;3.80;99.90;;;;;;5031223;28;20075;-67
2020/12/28 08:24:22;;;;;;;19.75;11.25;;;3.80;99.90;;;;;;5031434;28;20392;-67
2020/12/28 08:26:49;;;;;;;20.60;11.38;;;3.70;99.90;;;;;;5018976;28;20436;-67
2020/12/28 08:29:16;;;;;;;20.98;11.13;;;3.70;99.90;;;;;;5010440;28;20034;-67
2020/12/28 08:31:43;;;;;;;19.65;10.52;;;3.70;99.90;;;;;;5011573;28;20117;-67
2020/12/28 08:34:10;;;;;;;21.85;12.07;;;3.80;99.90;;;;;;5011186;28;20036;-66
2020/12/28 08:36:39;;;;;;;21.23;11.88;;;3.80;99.90;;;;;;5011163;28;20528;-67
2020/12/28 08:39:18;;;;;;;19.80;10.65;;;3.90;99.90;;;;;;4992724;28;20032;-67
2020/12/28 08:41:54;;;;;;;20.88;10.95;;;4.00;99.90;;;;;;4993393;28;20485;-67
2020/12/28 08:44:41;;;;;;;20.20;11.40;;;4.00;99.90;;;;;;5009581;28;20038;-67
2020/12/28 08:47:13;;;;;;;21.60;12.30;;;4.10;99.90;;;;;;4993265;28;20046;-67
2020/12/28 08:49:41;;;;;;;20.08;11.32;;;4.10;99.90;;;;;;5010211;28;20456;-67
2020/12/28 08:52:10;;;;;;;;;;;4.20;99.90;;;;;;5016583;28;20033;-67
2020/12/28 08:54:36;;;;;;;20.10;11.57;;;4.10;99.90;;;;;;5030544;28;19909;-67
2020/12/28 08:57:02;;;;;;;21.33;10.90;;;4.10;99.90;;;;;;5030505;28;20421;-67
2020/12/28 08:59:29;;;;;;;19.60;10.75;;;4.10;99.90;;;;;;5030134;28;20323;-64
2020/12/28 09:01:58;;;;;;;18.50;9.95;;;4.10;99.90;;;;;;5030578;28;20052;-67
2020/12/28 09:04:25;;;;;;;19.73;10.27;;;4.20;99.90;;;;;;5029581;28;20536;-67
2020/12/28 09:06:52;;;;;;;18.80;10.73;;;4.20;99.90;;;;;;5030138;28;20036;-67
2020/12/28 09:09:19;;;;;;;19.65;9.95;;;4.20;99.90;;;;;;5029784;28;20040;-67
2020/12/28 09:11:45;;;;;;;20.00;10.52;;;4.20;99.90;;;;;;5012606;28;20032;-66
2020/12/28 09:14:11;;;;;;;19.75;10.45;;;4.10;99.90;;;;;;5012351;28;20101;-66
2020/12/28 09:16:37;;;;;;;18.58;10.15;;;4.10;99.90;;;;;;5030230;28;20480;-67
2020/12/28 09:19:04;;;;;;;19.60;10.57;;;4.00;99.90;;;;;;5029603;28;20026;-66
2020/12/28 09:21:30;;;;;;;18.58;10.40;;;4.00;99.90;;;;;;5030268;28;20385;-66
2020/12/28 09:23:56;;;;;;;18.65;9.85;;;4.00;99.90;;;;;;5030352;28;20497;-66
2020/12/28 09:26:22;;;;;;;19.23;10.10;;;4.00;99.90;;;;;;5012362;28;20095;-67
2020/12/28 09:28:48;;;;;;;18.35;9.30;;;3.90;99.90;;;;;;5029938;28;20035;-68
2020/12/28 09:31:15;;;;;;;19.48;9.57;;;3.90;99.90;;;;;;5030274;28;20026;-67
2020/12/28 09:33:41;;;;;;;18.05;9.15;;;3.90;99.90;;;;;;5031366;28;20477;-67
2020/12/28 09:36:07;;;;;;;22.05;8.45;;;3.90;99.90;;;;;;5034128;28;20036;-67
2020/12/28 09:38:32;;;;;;;17.60;8.40;;;4.00;99.90;;;;;;5015832;28;20040;-66
2020/12/28 09:40:58;;;;;;;19.83;8.93;;;4.00;99.90;;;;;;5016280;28;20453;-67
2020/12/28 09:43:24;;;;;;;19.30;8.80;;;4.20;99.90;;;;;;5034068;28;20021;-67
2020/12/28 09:45:51;;;;;;;17.17;8.52;;;4.30;99.90;;;;;;5033998;28;20036;-67
2020/12/28 09:48:17;;;;;;;17.80;8.90;;;4.40;99.90;;;;;;5033901;28;20021;-67
2020/12/28 09:50:43;;;;;;;18.73;9.05;;;4.60;99.90;;;;;;5033731;28;20041;-67
2020/12/28 09:53:09;;;;;;;17.00;7.55;;;4.80;99.90;;;;;;5033636;28;20561;-67
2020/12/28 09:55:34;;;;;;;15.93;7.75;;;4.90;99.90;;;;;;5015974;28;20160;-67
2020/12/28 09:58:00;;;;;;;17.40;8.35;;;5.00;99.90;;;;;;5033659;28;20371;-67
2020/12/28 10:00:26;;;;;;;17.02;7.47;;;5.00;99.90;;;;;;5033273;28;20046;-67
2020/12/28 10:02:52;;;;;;;21.30;8.05;;;5.10;99.90;;;;;;5016059;28;20083;-67
2020/12/28 10:05:17;;;;;;;16.88;8.15;;;5.10;99.90;;;;;;5033572;28;20076;-65
2020/12/28 10:07:43;;;;;;;15.95;6.80;;;5.10;99.90;;;;;;5033499;28;20026;-65
2020/12/28 10:10:09;;;;;;;16.05;7.13;;;5.00;99.90;;;;;;5033146;28;20029;-65
2020/12/28 10:12:39;;;;;;;16.23;7.60;;;5.00;99.90;;;;;;5034838;28;20025;-55
2020/12/28 10:15:05;;;;;;;16.98;7.20;;;5.20;99.90;;;;;;5018429;28;20392;-60
2020/12/28 10:17:32;;;;;;;14.82;6.28;;;5.20;99.90;;;;;;5010169;28;20068;-58
2020/12/28 10:19:57;;;;;;;17.05;7.05;;;5.20;99.90;;;;;;5036113;28;20025;-59
2020/12/28 10:22:25;;;;;;;14.60;6.30;;;5.40;99.90;;;;;;5036108;28;20030;-58
2020/12/28 10:24:52;;;;;;;14.18;6.32;;;5.50;99.90;;;;;;5036412;28;20021;-60
2020/12/28 10:27:17;;;;;;;14.07;5.90;;;5.70;99.90;;;;;;5037218;28;20032;-60
2020/12/28 10:29:43;;;;;;;14.23;6.30;;;5.70;99.90;;;;;;5034745;28;20025;-69
2020/12/28 10:32:09;;;;;;;13.85;6.40;;;5.70;99.90;;;;;;5010797;28;20032;-69
2020/12/28 10:34:34;;;;;;;13.55;6.65;;;5.60;99.90;;;;;;5033293;28;20396;-68
2020/12/28 10:37:00;;;;;;;13.48;5.80;;;5.60;99.90;;;;;;5033286;28;20018;-69
2020/12/28 10:39:26;;;;;;;16.98;6.72;;;5.60;99.90;;;;;;5014805;28;20030;-68
2020/12/28 10:41:55;;;;;;;14.30;5.75;;;5.60;99.90;;;;;;5015231;28;20025;-68
2020/12/28 10:44:22;;;;;;;14.88;5.82;;;5.60;99.90;;;;;;5013721;28;20025;-69
2020/12/28 10:46:49;;;;;;;13.50;5.07;;;5.70;99.90;;;;;;5033429;28;20029;-69
2020/12/28 10:49:14;;;;;;;13.63;5.50;;;5.70;99.90;;;;;;5014648;28;20237;-68
2020/12/28 10:51:45;;;;;;;14.30;5.78;;;5.70;99.90;;;;;;5033287;28;20057;-68
2020/12/28 10:54:11;;;;;;;16.10;5.30;;;5.70;99.90;;;;;;5015423;28;20112;-69
2020/12/28 10:56:36;;;;;;;13.07;5.43;;;5.70;99.90;;;;;;5032733;28;20152;-63
2020/12/28 10:59:02;;;;;;;13.88;5.60;;;5.70;99.90;;;;;;5031959;28;20382;-61
2020/12/28 11:01:28;;;;;;;15.30;5.63;;;5.70;99.90;;;;;;5032645;28;20096;-62
2020/12/28 11:03:55;;;;;;;10.82;4.53;;;6.00;99.90;;;;;;5032991;28;20052;-60
2020/12/28 11:06:22;;;;;;;16.98;4.97;;;6.70;99.90;;;;;;5015104;28;20029;-63
2020/12/28 11:08:48;;;;;;;11.15;4.50;;;7.10;99.90;;;;;;5032229;28;20035;-62
2020/12/28 11:11:17;;;;;;;13.90;5.20;;;7.30;99.90;;;;;;5032429;28;20511;-57
2020/12/28 11:13:46;;;;;;;13.60;5.40;;;7.20;99.90;;;;;;5047156;23;20045;-58
2020/12/28 11:16:12;;;;;;;14.88;5.30;;;7.10;99.90;;;;;;5012181;28;20050;-59
2020/12/28 11:18:39;;;;;;;15.15;5.13;;;6.60;99.90;;;;;;5009281;28;20445;-54
2020/12/28 11:21:05;;;;;;;15.65;5.57;;;6.40;99.90;;;;;;5013365;28;20026;-58
2020/12/28 11:23:58;;;;;;;12.27;4.82;;;6.30;99.90;;;;;;5013087;28;20026;-53
2020/12/28 11:26:20;;;;;;;12.95;4.82;;;6.40;99.90;;;;;;5012397;28;20032;-58
2020/12/28 11:28:46;;;;;;;14.90;4.40;;;6.70;99.90;;;;;;5012543;28;20064;-58
2020/12/28 11:31:16;;;;;;;10.70;4.57;;;6.90;99.90;;;;;;5013070;28;20022;-54
2020/12/28 11:33:42;;;;;;;10.95;4.20;;;7.00;99.90;;;;;;5011084;28;20077;-54
2020/12/28 11:36:08;;;;;;;15.65;5.13;;;6.90;99.90;;;;;;5012970;28;20140;-56
2020/12/28 11:38:34;;;;;;;11.35;4.28;;;6.80;99.90;;;;;;5012504;28;20026;-60
2020/12/28 11:41:00;;;;;;;12.35;4.10;;;6.90;99.90;;;;;;5012131;28;20018;-55
2020/12/28 11:43:25;;;;;;;10.48;4.43;;;6.80;99.90;;;;;;5012762;28;20029;-57
2020/12/28 11:45:51;;;;;;;11.68;4.40;;;6.70;99.90;;;;;;5011481;28;20038;-54
2020/12/28 11:48:17;;;;;;;10.93;4.10;;;6.60;99.90;;;;;;5012560;28;20081;-55
2020/12/28 11:50:42;;;;;;;11.48;4.32;;;6.60;99.90;;;;;;5013453;28;20113;-57
2020/12/28 11:53:08;;;;;;;12.15;3.97;;;6.50;99.90;;;;;;5011324;28;20026;-56
2020/12/28 11:56:02;;;;;;;11.40;4.32;;;6.40;99.90;;;;;;5012862;28;20477;-51
2020/12/28 11:58:19;;;;;;;10.70;4.10;;;6.40;99.90;;;;;;5012068;28;20029;-55
2020/12/28 12:00:45;;;;;;;10.80;4.03;;;6.50;99.90;;;;;;5013001;28;20033;-55
2020/12/28 12:03:11;;;;;;;11.90;3.85;;;6.60;99.90;;;;;;5012963;28;20022;-56
2020/12/28 12:05:36;;;;;;;11.35;3.92;;;6.50;99.90;;;;;;5011432;28;20416;-57
2020/12/28 12:08:02;;;;;;;13.63;4.50;;;6.40;99.90;;;;;;5011298;28;20053;-53
2020/12/28 12:10:28;;;;;;;15.63;4.75;;;6.40;99.90;;;;;;5012237;28;20466;-54
2020/12/28 12:12:53;;;;;;;10.60;3.90;;;6.50;99.90;;;;;;5011512;28;20080;-56
2020/12/28 12:15:19;;;;;;;12.38;3.90;;;6.50;99.90;;;;;;5012411;28;20482;-55
2020/12/28 12:17:44;;;;;;;8.40;3.70;;;6.50;99.90;;;;;;5011201;28;20485;-57
2020/12/28 12:20:10;;;;;;;10.45;3.70;;;6.40;99.90;;;;;;5010591;28;20161;-53
2020/12/28 12:22:36;;;;;;;11.23;4.13;;;6.40;99.90;;;;;;5011480;28;20041;-53
2020/12/28 12:25:02;;;;;;;12.10;4.20;;;6.40;99.90;;;;;;5012551;28;20022;-50
2020/12/28 12:27:28;;;;;;;13.10;4.40;;;6.40;99.90;;;;;;5012863;28;20071;-58
2020/12/28 12:29:53;;;;;;;13.43;4.13;;;6.40;99.90;;;;;;4994878;28;20069;-55
2020/12/28 12:32:19;;;;;;;15.32;6.03;;;6.40;99.90;;;;;;5012802;28;20018;-54
2020/12/28 12:34:44;;;;;;;11.70;4.60;;;6.30;99.90;;;;;;5011133;28;20030;-58
2020/12/28 12:37:13;;;;;;;10.57;4.05;;;6.30;99.90;;;;;;5012386;28;20038;-52
2020/12/28 12:39:39;;;;;;;11.13;4.45;;;6.10;99.90;;;;;;5010567;28;20022;-54
2020/12/28 12:42:04;;;;;;;10.98;3.92;;;6.20;99.90;;;;;;5007151;28;20045;-54
2020/12/28 12:44:30;;;;;;;12.35;4.50;;;6.20;99.90;;;;;;5011340;28;20145;-53
2020/12/28 12:46:56;;;;;;;11.15;4.22;;;6.20;99.90;;;;;;5005926;28;20018;-57
2020/12/28 12:49:21;;;;;;;11.00;4.22;;;6.20;99.90;;;;;;5010045;28;20025;-54
2020/12/28 12:51:47;;;;;;;10.80;4.00;;;6.40;99.90;;;;;;4993930;28;20034;-51
2020/12/28 12:54:12;;;;;;;10.68;4.32;;;6.50;99.90;;;;;;5008712;28;20088;-55